createdAt,value
2023-01-15T05:02:06.362Z,99111.50
2023-01-15T05:04:34.421Z,99135.75
2023-01-15T05:07:02.589Z,99140.69
2023-01-15T05:09:29.282Z,99137.25
2023-01-15T05:11:56.293Z,99154.66
2023-01-15T05:14:23.464Z,99150.06
2023-01-15T05:16:50.121Z,99150.19
2023-01-15T05:19:16.890Z,99155.13
2023-01-15T05:21:43.926Z,99139.94
2023-01-15T05:24:15.526Z,99172.50
2023-01-15T05:26:42.871Z,99159.56
2023-01-15T05:29:10.602Z,99132.75
2023-01-15T05:31:37.513Z,99120.97
2023-01-15T05:34:04.488Z,99149.16
2023-01-15T05:36:32.068Z,99143.59
2023-01-15T05:39:01.631Z,99178.44
2023-01-15T05:41:47.385Z,99178.00
2023-01-15T05:44:14.340Z,99190.00
2023-01-15T05:46:41.846Z,99162.47
2023-01-15T05:49:11.182Z,99191.94
2023-01-15T05:51:38.413Z,99190.81
2023-01-15T05:54:06.064Z,99183.69
2023-01-15T05:56:35.833Z,99179.00
2023-01-15T05:59:03.479Z,99176.34
2023-01-15T06:01:30.684Z,99175.34
2023-01-15T06:04:01.437Z,99175.03
2023-01-15T06:06:28.219Z,99160.56
2023-01-15T06:08:55.438Z,99151.63
2023-01-15T06:11:22.243Z,99179.41
2023-01-15T06:13:49.445Z,99146.91
2023-01-15T06:16:16.351Z,99204.56
2023-01-15T06:18:43.160Z,99208.31
2023-01-15T06:21:10.918Z,99197.84
2023-01-15T06:23:38.262Z,99222.16
2023-01-15T06:26:06.816Z,99230.63
2023-01-15T06:28:33.737Z,99221.09
2023-01-15T06:31:05.629Z,99231.88
2023-01-15T06:33:32.749Z,99244.13
2023-01-15T06:36:02.350Z,99241.59
2023-01-15T06:38:30.729Z,99238.50
2023-01-15T06:40:59.503Z,99224.03
2023-01-15T06:43:44.905Z,99222.06
2023-01-15T06:46:30.426Z,99250.00
2023-01-15T06:48:57.123Z,99256.84
2023-01-15T06:51:24.405Z,99255.13
2023-01-15T06:53:51.079Z,99235.19
2023-01-15T06:56:18.123Z,99276.63
2023-01-15T06:58:45.690Z,99290.38
2023-01-15T07:01:15.593Z,99290.63
2023-01-15T07:03:42.315Z,99302.41
2023-01-15T07:06:10.317Z,99309.50
2023-01-15T07:08:37.623Z,99333.06
2023-01-15T07:11:09.015Z,99336.75
2023-01-15T07:13:37.514Z,99316.09
2023-01-15T07:16:04.782Z,99325.47
2023-01-15T07:18:33.511Z,99325.47
2023-01-15T07:21:03.587Z,99355.38
2023-01-15T07:23:30.740Z,99363.06
2023-01-15T07:25:57.727Z,99335.22
2023-01-15T07:28:25.473Z,99371.31
2023-01-15T07:30:52.328Z,99377.25
2023-01-15T07:33:19.919Z,99356.38
2023-01-15T07:35:46.516Z,99374.47
2023-01-15T07:38:13.784Z,99374.47
2023-01-15T07:40:40.958Z,99359.53
2023-01-15T07:43:28.293Z,99383.16
2023-01-15T07:46:13.791Z,99394.44
2023-01-15T07:48:59.286Z,99382.22
2023-01-15T07:51:26.076Z,99407.69
2023-01-15T07:53:53.840Z,99397.38
2023-01-15T07:56:20.495Z,99423.47
2023-01-15T07:58:50.410Z,99412.78
2023-01-15T08:01:17.182Z,99397.50
2023-01-15T08:03:44.452Z,99432.69
2023-01-15T08:06:11.801Z,99395.91
2023-01-15T08:08:38.641Z,99422.69
2023-01-15T08:11:24.099Z,99430.28
2023-01-15T08:14:10.094Z,99426.63
2023-01-15T08:16:37.416Z,99419.19
2023-01-15T08:19:04.172Z,99442.75
2023-01-15T08:21:31.355Z,99453.69
2023-01-15T08:23:58.357Z,99445.59
2023-01-15T08:26:25.434Z,99466.63
2023-01-15T08:28:52.401Z,99461.94
2023-01-15T08:31:19.197Z,99456.44
2023-01-15T08:33:46.382Z,99468.88
2023-01-15T08:36:13.401Z,99442.22
2023-01-15T08:38:40.674Z,99460.88
2023-01-15T08:41:07.565Z,99461.03
2023-01-15T08:43:34.314Z,99489.69
2023-01-15T08:46:02.173Z,99505.38
2023-01-15T08:48:29.790Z,99495.19
2023-01-15T08:50:56.468Z,99472.91
2023-01-15T08:53:24.532Z,99498.72
2023-01-15T08:55:51.679Z,99485.63
2023-01-15T08:58:19.083Z,99509.53
2023-01-15T09:00:46.648Z,99479.31
2023-01-15T09:03:13.527Z,99493.91
2023-01-15T09:05:40.686Z,99477.00
2023-01-15T09:08:08.122Z,99490.56
2023-01-15T09:10:35.117Z,99506.38
2023-01-15T09:13:02.888Z,99501.34
2023-01-15T09:15:30.202Z,99528.22
2023-01-15T09:17:57.500Z,99529.16
2023-01-15T09:20:24.261Z,99541.75
2023-01-15T09:22:51.464Z,99555.16
2023-01-15T09:25:19.574Z,99555.81
2023-01-15T09:27:47.134Z,99533.59
2023-01-15T09:30:18.922Z,99528.78
2023-01-15T09:32:45.734Z,99566.28
2023-01-15T09:35:12.677Z,99566.47
2023-01-15T09:37:40.651Z,99556.06
2023-01-15T09:40:20.229Z,99584.88
2023-01-15T09:42:55.077Z,99587.63
2023-01-15T09:45:25.907Z,99598.75
2023-01-15T09:48:01.985Z,99599.41
2023-01-15T09:50:31.567Z,99610.53
2023-01-15T09:53:38.084Z,99611.47
2023-01-15T09:56:04.988Z,99618.78
2023-01-15T09:58:37.097Z,99605.19
2023-01-15T10:01:04.748Z,99618.53
2023-01-15T10:03:57.314Z,99632.75
2023-01-15T10:06:34.446Z,99647.41
2023-01-15T10:09:21.318Z,99649.50
2023-01-15T10:12:10.702Z,99653.69
2023-01-15T10:15:03.764Z,99662.09
2023-01-15T10:17:53.684Z,99655.66
2023-01-15T10:20:26.502Z,99667.25
2023-01-15T10:23:03.425Z,99663.03
2023-01-15T10:25:34.821Z,99667.03
2023-01-15T10:28:06.081Z,99653.97
2023-01-15T10:30:43.622Z,99669.28
2023-01-15T10:33:30.603Z,99675.22
2023-01-15T10:36:15.979Z,99671.00
2023-01-15T10:39:01.545Z,99670.81
2023-01-15T10:42:01.499Z,99656.78
2023-01-15T10:44:50.094Z,99662.41
2023-01-15T10:47:19.654Z,99633.88
2023-01-15T10:49:53.872Z,99669.69
2023-01-15T10:52:32.112Z,99628.88
2023-01-15T10:55:19.165Z,99648.22
2023-01-15T10:58:13.972Z,99662.50
2023-01-15T11:00:51.525Z,99662.06
2023-01-15T11:03:21.260Z,99669.00
2023-01-15T11:05:48.401Z,99665.47
2023-01-15T11:11:18.584Z,99661.41
2023-01-15T11:14:14.861Z,99665.25
2023-01-15T11:17:00.756Z,99635.00
2023-01-15T11:19:40.516Z,99668.00
2023-01-15T11:22:15.025Z,99659.16
2023-01-15T11:24:51.401Z,99644.63
2023-01-15T11:27:28.609Z,99654.63
2023-01-15T11:29:58.710Z,99637.19
2023-01-15T11:32:33.846Z,99639.28
2023-01-15T11:35:02.046Z,99635.38
2023-01-15T11:37:29.259Z,99632.69
2023-01-15T11:40:06.279Z,99653.53
2023-01-15T11:42:52.361Z,99674.34
2023-01-15T11:45:38.909Z,99674.19
2023-01-15T11:48:40.728Z,99653.69
2023-01-15T11:51:15.104Z,99680.44
2023-01-15T11:53:46.567Z,99672.56
2023-01-15T11:56:18.476Z,99652.06
2023-01-15T11:58:56.123Z,99650.78
2023-01-15T12:01:43.526Z,99688.00
2023-01-15T12:04:45.526Z,99701.56
2023-01-15T12:07:13.681Z,99706.94
2023-01-15T12:10:02.473Z,99691.09
2023-01-15T12:12:40.006Z,99699.13
2023-01-15T12:15:14.781Z,99700.44
2023-01-15T12:17:50.572Z,99694.44
2023-01-15T12:20:51.815Z,99702.53
2023-01-15T12:23:28.199Z,99698.63
2023-01-15T12:26:07.077Z,99702.53
2023-01-15T12:28:39.791Z,99682.38
2023-01-15T12:31:23.947Z,99684.44
2023-01-15T12:34:07.397Z,99682.34
2023-01-15T12:36:38.978Z,99663.78
2023-01-15T12:39:41.909Z,99686.59
2023-01-15T12:42:29.679Z,99679.50
2023-01-15T12:45:04.833Z,99666.22
2023-01-15T12:47:49.536Z,99687.16
2023-01-15T12:50:46.587Z,99667.66
2023-01-15T12:53:27.209Z,99679.28
2023-01-15T12:56:27.231Z,99652.47
2023-01-15T12:59:21.408Z,99664.00
2023-01-15T13:01:54.520Z,99664.94
2023-01-15T13:04:30.328Z,99670.59
2023-01-15T13:07:01.341Z,99654.88
2023-01-15T13:09:38.241Z,99656.47
2023-01-15T13:12:14.294Z,99671.78
2023-01-15T13:14:43.715Z,99662.06
2023-01-15T13:17:21.442Z,99666.66
2023-01-15T13:20:12.798Z,99658.41
2023-01-15T13:23:41.409Z,99674.94
2023-01-15T13:26:46.911Z,99681.13
2023-01-15T13:29:32.048Z,99686.94
2023-01-15T13:32:12.639Z,99670.28
2023-01-15T13:35:04.536Z,99667.31
2023-01-15T13:37:36.630Z,99690.63
2023-01-15T13:40:25.647Z,99671.31
2023-01-15T13:42:56.939Z,99674.81
2023-01-15T13:45:37.263Z,99694.06
2023-01-15T13:48:15.509Z,99691.44
2023-01-15T13:50:52.414Z,99694.47
2023-01-15T13:53:28.348Z,99698.09
2023-01-15T13:56:32.318Z,99695.47
2023-01-15T13:59:02.970Z,99717.25
2023-01-15T14:01:40.199Z,99736.31
2023-01-15T14:04:13.655Z,99724.84
2023-01-15T14:06:43.586Z,99743.91
2023-01-15T14:09:12.415Z,99720.28
2023-01-15T14:12:07.743Z,99738.47
2023-01-15T14:14:46.598Z,99737.78
2023-01-15T14:17:50.520Z,99738.03
2023-01-15T14:20:47.601Z,99742.56
2023-01-15T14:23:33.149Z,99749.88
2023-01-15T14:26:18.914Z,99732.66
2023-01-15T14:29:07.210Z,99737.59
2023-01-15T14:31:51.957Z,99749.72
2023-01-15T14:34:29.204Z,99745.72
2023-01-15T14:36:59.790Z,99755.94
2023-01-15T14:39:41.723Z,99768.06
2023-01-15T14:42:41.473Z,99763.88
2023-01-15T14:45:11.879Z,99763.69
2023-01-15T14:47:52.775Z,99734.59
2023-01-15T14:50:31.331Z,99741.94
2023-01-15T14:53:21.279Z,99757.78
2023-01-15T14:55:49.479Z,99749.41
2023-01-15T14:58:38.416Z,99740.78
2023-01-15T15:01:17.539Z,99750.06
2023-01-15T15:03:58.290Z,99762.22
2023-01-15T15:06:27.403Z,99748.13
2023-01-15T15:08:58.569Z,99741.34
2023-01-15T15:11:47.530Z,99753.09
2023-01-15T15:14:14.435Z,99750.81
2023-01-15T15:16:52.864Z,99766.06
2023-01-15T15:19:53.817Z,99723.25
2023-01-15T15:22:21.231Z,99751.16
2023-01-15T15:24:49.966Z,99742.75
2023-01-15T15:27:18.087Z,99744.19
2023-01-15T15:32:33.063Z,99741.69
2023-01-15T15:35:00.420Z,99746.25
2023-01-15T15:37:28.739Z,99722.16
2023-01-15T15:40:09.452Z,99730.00
2023-01-15T15:43:01.958Z,99723.56
2023-01-15T15:45:48.777Z,99737.78
2023-01-15T15:48:52.978Z,99725.59
2023-01-15T15:51:42.709Z,99725.38
2023-01-15T15:54:23.418Z,99725.38
2023-01-15T15:57:15.769Z,99721.00
2023-01-15T15:59:50.605Z,99707.13
2023-01-15T16:02:36.902Z,99712.03
2023-01-15T16:05:29.376Z,99700.81
2023-01-15T16:07:56.633Z,99704.25
2023-01-15T16:10:31.233Z,99715.00
2023-01-15T16:13:04.563Z,99713.94
2023-01-15T16:15:34.559Z,99660.09
2023-01-15T16:18:02.087Z,99683.69
2023-01-15T16:20:28.853Z,99690.47
2023-01-15T16:22:58.162Z,99683.19
2023-01-15T16:25:33.036Z,99672.72
2023-01-15T16:28:00.664Z,99682.84
2023-01-15T16:30:28.588Z,99674.41
2023-01-15T16:33:03.803Z,99670.63
2023-01-15T16:35:34.443Z,99663.84
2023-01-15T16:38:01.341Z,99656.06
2023-01-15T16:40:31.217Z,99670.88
2023-01-15T16:43:09.088Z,99654.38
2023-01-15T16:45:36.195Z,99644.72
2023-01-15T16:48:10.982Z,99661.53
2023-01-15T16:50:40.584Z,99660.56
2023-01-15T16:53:35.918Z,99625.75
2023-01-15T16:56:05.955Z,99672.81
2023-01-15T16:58:40.542Z,99652.81
2023-01-15T17:01:34.243Z,99661.28
2023-01-15T17:04:02.740Z,99644.53
2023-01-15T17:06:29.580Z,99636.59
2023-01-15T17:08:56.922Z,99645.31
2023-01-15T17:11:30.634Z,99645.72
2023-01-15T17:14:22.840Z,99660.25
2023-01-15T17:16:49.580Z,99629.78
2023-01-15T17:19:18.730Z,99634.47
2023-01-15T17:21:47.767Z,99643.84
2023-01-15T17:24:15.037Z,99647.34
2023-01-15T17:26:42.281Z,99672.69
2023-01-15T17:29:09.608Z,99632.13
2023-01-15T17:31:36.567Z,99662.66
2023-01-15T17:34:03.652Z,99668.00
2023-01-15T17:36:30.651Z,99648.22
2023-01-15T17:38:57.639Z,99671.91
2023-01-15T17:41:27.539Z,99661.69
2023-01-15T17:43:54.988Z,99648.53
2023-01-15T17:46:22.295Z,99670.41
2023-01-15T17:48:49.972Z,99667.34
2023-01-15T17:51:16.990Z,99673.13
2023-01-15T17:53:45.386Z,99660.91
2023-01-15T17:56:32.737Z,99641.38
2023-01-15T17:59:20.957Z,99645.53
2023-01-15T18:02:09.275Z,99629.63
2023-01-15T18:05:00.608Z,99663.72
2023-01-15T18:07:33.816Z,99664.22
2023-01-15T18:10:02.472Z,99629.50
2023-01-15T18:12:29.448Z,99650.25
2023-01-15T18:14:56.897Z,99642.69
2023-01-15T18:17:25.156Z,99645.88
2023-01-15T18:19:55.855Z,99632.63
2023-01-15T18:23:01.613Z,99638.13
2023-01-15T18:38:08.839Z,99585.00
2023-01-15T18:48:28.341Z,99603.66
2023-01-15T18:50:55.895Z,99588.63
2023-01-15T18:53:26.298Z,99589.28
2023-01-15T18:56:01.906Z,99574.94
2023-01-15T18:58:30.515Z,99572.72
2023-01-15T19:00:57.428Z,99599.63
2023-01-15T19:03:24.628Z,99556.50
2023-01-15T19:06:06.532Z,99605.56
2023-01-15T19:08:43.797Z,99583.78
2023-01-15T19:11:14.833Z,99587.34
2023-01-15T19:13:42.959Z,99580.44
2023-01-15T19:16:29.578Z,99564.06
2023-01-15T19:18:59.831Z,99564.19
2023-01-15T19:21:27.277Z,99557.28
2023-01-15T19:23:58.116Z,99565.34
2023-01-15T19:26:28.103Z,99546.16
2023-01-15T19:29:52.079Z,99568.03
2023-01-15T19:32:25.378Z,99549.75
2023-01-15T19:34:53.183Z,99539.41
2023-01-15T19:37:24.849Z,99561.91
2023-01-15T19:39:57.748Z,99564.31
2023-01-15T19:42:43.188Z,99556.41
2023-01-15T19:49:08.935Z,99549.09
2023-01-15T19:51:54.806Z,99546.88
2023-01-15T19:54:42.196Z,99544.81
2023-01-15T19:57:08.996Z,99552.63
2023-01-15T19:59:45.521Z,99541.88
2023-01-15T20:02:13.553Z,99554.28
2023-01-15T20:04:40.880Z,99525.81
2023-01-15T20:07:11.570Z,99509.88
2023-01-15T20:09:46.121Z,99531.91
2023-01-15T20:12:31.621Z,99519.63
2023-01-15T20:15:03.767Z,99493.81
2023-01-15T20:17:30.934Z,99510.28
2023-01-15T20:19:58.669Z,99501.28
2023-01-15T20:22:27.960Z,99516.56
2023-01-15T20:24:55.018Z,99490.25
2023-01-15T20:27:22.190Z,99515.78
2023-01-15T20:29:56.493Z,99504.66
2023-01-15T20:32:23.591Z,99484.44
2023-01-15T20:34:51.137Z,99509.19
2023-01-15T20:37:18.241Z,99502.22
2023-01-15T20:39:45.563Z,99491.91
2023-01-15T20:42:30.888Z,99498.19
2023-01-15T20:44:57.760Z,99495.91
2023-01-15T20:47:46.045Z,99508.63
2023-01-15T20:50:16.622Z,99488.00
2023-01-15T20:52:47.438Z,99445.53
2023-01-15T20:55:18.753Z,99456.81
2023-01-15T20:57:51.412Z,99496.72
2023-01-15T21:00:20.937Z,99496.97
2023-01-15T21:02:48.385Z,99484.44
2023-01-15T21:05:15.598Z,99482.19
2023-01-15T21:07:43.286Z,99483.75
2023-01-15T21:10:11.833Z,99474.53
2023-01-15T21:12:38.721Z,99490.25
2023-01-15T21:15:09.851Z,99459.59
2023-01-15T21:17:39.820Z,99476.47
2023-01-15T21:20:10.614Z,99466.09
2023-01-15T21:22:37.895Z,99495.81
2023-01-15T21:25:06.517Z,99483.50
2023-01-15T21:27:35.439Z,99468.34
2023-01-15T21:30:02.747Z,99476.66
2023-01-15T21:32:30.270Z,99465.53
2023-01-15T21:34:59.523Z,99467.19
2023-01-15T21:37:26.434Z,99446.41
2023-01-15T21:39:54.113Z,99458.59
2023-01-15T21:42:40.320Z,99455.72
2023-01-15T21:45:08.113Z,99447.13
2023-01-15T21:47:36.944Z,99451.31
2023-01-15T21:50:05.601Z,99417.09
2023-01-15T21:52:34.117Z,99403.53
2023-01-15T21:55:01.245Z,99416.53
2023-01-15T21:57:31.302Z,99418.72
2023-01-15T21:59:58.773Z,99421.25
2023-01-15T22:02:29.894Z,99398.78
2023-01-15T22:04:56.736Z,99411.84
2023-01-15T22:07:23.519Z,99415.75
2023-01-15T22:09:50.347Z,99390.16
2023-01-15T22:12:29.938Z,99415.75
2023-01-15T22:14:57.535Z,99380.69
2023-01-15T22:17:24.149Z,99355.66
2023-01-15T22:19:51.537Z,99343.88
2023-01-15T22:22:30.031Z,99345.59
2023-01-15T22:24:56.796Z,99348.16
2023-01-15T22:27:23.547Z,99348.25
2023-01-15T22:29:50.387Z,99349.06
